Time;durP1;ratioP1;P1;durP2;ratioP2;P2;SDS_P1;SDS_P2;PMS_P1;PMS_P2;Temp;Humidity;BMP_temperature;BMP_pressure;BME280_temperature;BME280_humidity;BME280_pressure;Samples;Min_cycle;Max_cycle;Signal;HPM_P1;HPM_P2
2023/11/05 00:01:25;;;;;;;0.10;0.10;;;;;;;10.89;81.36;100040.88;4977461;28;20022;-87
2023/11/05 00:03:50;;;;;;;0.10;0.10;;;;;;;10.91;81.63;100036.44;4961582;28;20030;-87
2023/11/05 00:06:16;;;;;;;0.17;0.17;;;;;;;10.95;81.46;100037.09;4993596;28;20084;-88
2023/11/05 00:08:42;;;;;;;0.20;0.20;;;;;;;10.93;81.13;100032.03;4977225;28;20456;-87
2023/11/05 00:11:07;;;;;;;0.20;0.20;;;;;;;10.82;81.67;100018.91;5009848;28;20031;-87
2023/11/05 00:13:33;;;;;;;0.20;0.20;;;;;;;10.85;81.68;100031.63;4977401;28;20041;-88
2023/11/05 00:15:58;;;;;;;0.10;0.10;;;;;;;10.88;81.10;100026.28;4961101;28;20038;-87
2023/11/05 00:18:24;;;;;;;0.20;0.20;;;;;;;10.74;81.27;100018.50;4977267;28;20472;-87
2023/11/05 00:20:49;;;;;;;0.10;0.10;;;;;;;10.84;81.36;100027.38;4977184;28;20038;-86
2023/11/05 00:23:15;;;;;;;0.10;0.10;;;;;;;10.78;81.44;100027.75;4976911;28;20030;-88
2023/11/05 00:25:40;;;;;;;0.10;0.10;;;;;;;10.69;81.41;100043.81;4976748;28;20026;-86
2023/11/05 00:28:06;;;;;;;0.20;0.20;;;;;;;10.58;82.08;100011.63;4960961;28;20150;-87
2023/11/05 00:30:31;;;;;;;0.10;0.10;;;;;;;10.67;82.03;100027.53;4960735;28;20412;-86
2023/11/05 00:32:57;;;;;;;0.20;0.20;;;;;;;10.62;82.12;100020.91;4976824;28;20116;-87
2023/11/05 00:35:22;;;;;;;0.10;0.10;;;;;;;10.60;82.21;100022.72;4960717;28;20109;-87
2023/11/05 00:37:48;;;;;;;0.10;0.10;;;;;;;10.71;81.87;100042.78;4975976;28;20493;-87
2023/11/05 00:40:13;;;;;;;0.20;0.20;;;;;;;10.63;81.13;100042.44;4976384;28;20038;-86
2023/11/05 00:42:39;;;;;;;0.20;0.20;;;;;;;10.63;81.42;100045.84;4975477;28;20097;-87
2023/11/05 00:45:06;;;;;;;0.20;0.20;;;;;;;10.57;80.96;100027.25;4960694;28;20064;-87
2023/11/05 00:47:31;;;;;;;0.20;0.20;;;;;;;10.52;80.48;100011.16;4960862;28;20049;-88
2023/11/05 00:49:57;;;;;;;0.15;0.15;;;;;;;10.43;81.36;100016.88;4992657;28;20481;-88
2023/11/05 00:52:22;;;;;;;0.20;0.20;;;;;;;10.46;81.88;100022.72;4960252;28;20042;-86
2023/11/05 00:54:48;;;;;;;0.10;0.10;;;;;;;10.48;81.04;100020.84;4976874;28;20041;-87
2023/11/05 00:57:14;;;;;;;0.20;0.20;;;;;;;10.50;80.63;100025.94;4992651;28;20102;-88
2023/11/05 00:59:39;;;;;;;0.20;0.20;;;;;;;10.40;80.69;100007.53;4960034;28;20101;-87
2023/11/05 01:02:05;;;;;;;0.20;0.20;;;;;;;10.55;81.17;100032.53;4976432;28;20037;-88
2023/11/05 01:04:30;;;;;;;0.20;0.20;;;;;;;10.49;81.81;100026.84;4976285;28;20038;-86
2023/11/05 01:06:56;;;;;;;0.20;0.20;;;;;;;10.42;82.22;100031.56;4975763;28;20481;-87
2023/11/05 01:09:21;;;;;;;0.10;0.10;;;;;;;10.47;82.21;100037.28;4992386;28;20436;-87
2023/11/05 01:11:47;;;;;;;0.10;0.10;;;;;;;10.46;82.03;100033.06;4959954;28;20030;-87
2023/11/05 01:14:13;;;;;;;0.20;0.20;;;;;;;10.44;81.75;100040.06;4960127;28;20121;-86
2023/11/05 01:16:38;;;;;;;0.20;0.20;;;;;;;10.26;81.79;100015.25;4975917;28;20019;-87
2023/11/05 01:19:04;;;;;;;0.20;0.20;;;;;;;10.30;80.99;100029.66;4959793;28;20042;-87
2023/11/05 01:21:29;;;;;;;0.20;0.20;;;;;;;10.35;80.63;100032.84;4975679;28;20034;-86
2023/11/05 01:23:55;;;;;;;0.20;0.20;;;;;;;10.30;79.78;100029.66;4976367;28;20069;-87
2023/11/05 01:26:20;;;;;;;0.10;0.10;;;;;;;10.33;82.15;100047.63;4976160;28;20030;-86
2023/11/05 01:28:46;;;;;;;0.20;0.20;;;;;;;10.26;82.32;100026.44;4959759;28;20030;-87
2023/11/05 01:31:11;;;;;;;0.20;0.20;;;;;;;10.26;82.64;100046.28;4992101;28;20026;-87
2023/11/05 01:33:37;;;;;;;0.20;0.20;;;;;;;10.31;82.86;100036.50;4991557;28;20057;-86
2023/11/05 01:36:03;;;;;;;0.20;0.20;;;;;;;10.30;82.67;100032.25;5008349;28;20112;-87
2023/11/05 01:38:28;;;;;;;0.20;0.20;;;;;;;10.29;82.67;100033.19;4975463;28;20070;-86
2023/11/05 01:40:54;;;;;;;0.20;0.20;;;;;;;10.32;82.81;100030.41;4975748;28;20435;-87
2023/11/05 01:43:19;;;;;;;0.20;0.20;;;;;;;10.40;83.47;100028.22;4959443;28;20484;-86
2023/11/05 01:45:45;;;;;;;0.20;0.20;;;;;;;10.44;83.50;100024.56;4975544;28;20088;-87
2023/11/05 01:48:11;;;;;;;0.10;0.10;;;;;;;10.43;83.56;100030.66;4991914;28;20452;-87
2023/11/05 01:50:36;;;;;;;0.10;0.10;;;;;;;10.35;83.57;100009.56;4975110;28;20386;-87
2023/11/05 01:53:02;;;;;;;0.20;0.20;;;;;;;10.49;83.23;100035.44;4959337;28;20026;-87
2023/11/05 01:55:27;;;;;;;0.20;0.20;;;;;;;10.42;83.45;100016.06;4975259;28;20027;-86
2023/11/05 01:57:53;;;;;;;0.10;0.10;;;;;;;10.34;83.85;99984.63;4975419;28;20125;-86
2023/11/05 02:00:19;;;;;;;0.20;0.20;;;;;;;10.53;83.35;100008.50;4991408;28;20034;-87
2023/11/05 02:02:44;;;;;;;0.20;0.20;;;;;;;10.57;83.11;100025.50;5007525;28;20042;-87
2023/11/05 02:05:10;;;;;;;0.10;0.10;;;;;;;10.67;82.76;100019.78;4975017;28;20464;-87
2023/11/05 02:07:36;;;;;;;0.20;0.20;;;;;;;10.65;83.32;100001.78;4958863;28;20128;-87
2023/11/05 02:10:03;;;;;;;0.20;0.20;;;;;;;10.71;83.26;100003.97;4975461;28;20026;-87
2023/11/05 02:12:29;;;;;;;0.10;0.10;;;;;;;10.77;83.14;100002.78;4975134;28;20412;-87
2023/11/05 02:14:55;;;;;;;0.10;0.10;;;;;;;10.88;82.54;100003.81;4958962;28;20030;-86
2023/11/05 02:17:23;;;;;;;0.20;0.20;;;;;;;10.84;82.21;99998.94;4975119;28;20034;-87
2023/11/05 02:19:49;;;;;;;0.20;0.20;;;;;;;10.80;81.92;100000.00;4975362;28;20503;-86
2023/11/05 02:22:15;;;;;;;0.20;0.20;;;;;;;10.74;82.48;100005.56;4974962;28;20057;-86
2023/11/05 02:24:46;;;;;;;0.20;0.20;;;;;;;10.65;82.47;100000.94;4974918;28;20025;-87
2023/11/05 02:27:12;;;;;;;0.10;0.10;;;;;;;10.63;82.60;99999.28;4990997;28;20088;-87
2023/11/05 02:29:38;;;;;;;0.10;0.10;;;;;;;10.58;82.61;99984.94;4958637;28;20031;-87
2023/11/05 02:32:03;;;;;;;0.20;0.20;;;;;;;10.59;82.29;99992.59;4958341;28;20030;-87
2023/11/05 02:34:32;;;;;;;0.10;0.10;;;;;;;10.60;82.20;99988.25;4974490;28;20031;-88
2023/11/05 02:36:58;;;;;;;0.10;0.10;;;;;;;10.57;82.58;99989.28;4958632;28;20030;-87
2023/11/05 02:39:23;;;;;;;0.20;0.20;;;;;;;10.60;82.97;99998.59;4974301;28;20050;-87
2023/11/05 02:41:49;;;;;;;0.10;0.10;;;;;;;10.48;83.20;100005.34;4974845;28;20069;-87
2023/11/05 02:44:14;;;;;;;0.10;0.10;;;;;;;10.45;82.91;100008.13;4958547;28;20088;-87
2023/11/05 02:46:40;;;;;;;0.10;0.10;;;;;;;10.42;82.71;100008.31;4974556;28;20026;-87
2023/11/05 02:49:09;;;;;;;0.20;0.20;;;;;;;10.33;83.02;99993.31;4958024;28;20034;-86
2023/11/05 02:51:35;;;;;;;0.10;0.10;;;;;;;10.19;83.37;99957.03;4975112;28;20511;-87
2023/11/05 02:54:01;;;;;;;0.10;0.10;;;;;;;10.30;84.07;99983.13;4974229;28;20026;-87
2023/11/05 02:56:26;;;;;;;0.10;0.10;;;;;;;10.29;83.47;99963.38;4974162;28;20065;-87
2023/11/05 02:58:52;;;;;;;0.10;0.10;;;;;;;10.35;82.93;99983.72;4991942;28;20112;-86
2023/11/05 03:01:24;;;;;;;0.10;0.10;;;;;;;10.31;83.06;99998.56;4974199;28;20026;-87
2023/11/05 03:03:53;;;;;;;0.17;0.17;;;;;;;10.11;84.01;99995.41;4989815;28;20051;-87
2023/11/05 03:06:19;;;;;;;0.20;0.20;;;;;;;10.17;83.25;99989.91;4973694;28;20034;-87
2023/11/05 03:08:45;;;;;;;0.20;0.20;;;;;;;10.23;83.75;100020.63;4974085;28;20416;-87
2023/11/05 03:11:11;;;;;;;0.20;0.20;;;;;;;10.16;83.31;100008.94;4974211;28;20527;-87
2023/11/05 03:13:36;;;;;;;0.20;0.20;;;;;;;10.24;83.08;100020.53;4974390;28;20105;-87
2023/11/05 03:16:03;;;;;;;0.10;0.10;;;;;;;10.18;82.71;99988.97;4990412;28;20034;-87
2023/11/05 03:18:29;;;;;;;0.10;0.10;;;;;;;10.08;82.99;99975.75;4957785;28;20027;-87
2023/11/05 03:20:54;;;;;;;0.10;0.10;;;;;;;10.04;82.30;99969.94;4974055;28;20037;-88
2023/11/05 03:23:20;;;;;;;0.20;0.20;;;;;;;10.06;82.81;99978.44;4973962;28;20023;-87
2023/11/05 03:25:45;;;;;;;0.10;0.10;;;;;;;10.15;82.62;99981.41;4973953;28;20033;-87
2023/11/05 03:28:11;;;;;;;0.10;0.10;;;;;;;10.20;82.86;100000.06;4990227;28;20069;-86
2023/11/05 03:30:36;;;;;;;0.20;0.20;;;;;;;10.17;83.06;99995.06;5006724;28;20116;-86
2023/11/05 03:33:04;;;;;;;0.10;0.10;;;;;;;10.15;82.59;99995.16;4957261;28;20023;-87
2023/11/05 03:35:30;;;;;;;0.15;0.15;;;;;;;10.09;83.17;100007.59;4974148;28;20065;-87
2023/11/05 03:37:55;;;;;;;0.20;0.20;;;;;;;10.03;83.73;100004.47;5006563;28;20046;-86
2023/11/05 03:40:21;;;;;;;0.10;0.10;;;;;;;9.97;83.74;100004.78;4973888;28;20034;-87
2023/11/05 03:42:46;;;;;;;0.20;0.20;;;;;;;9.96;84.40;99997.97;4990030;28;20023;-86
2023/11/05 03:45:12;;;;;;;0.10;0.10;;;;;;;10.05;83.65;100000.03;4989961;28;20042;-86
2023/11/05 03:47:37;;;;;;;0.15;0.15;;;;;;;9.92;83.19;99980.13;4957258;28;20116;-86
2023/11/05 03:50:03;;;;;;;0.20;0.20;;;;;;;10.01;82.85;99997.69;4973465;28;20542;-86
2023/11/05 03:52:29;;;;;;;0.20;0.20;;;;;;;10.00;83.22;100007.19;4973784;28;20033;-86
2023/11/05 03:54:55;;;;;;;0.10;0.10;;;;;;;9.87;83.89;99993.31;4973513;28;20057;-87
2023/11/05 03:57:20;;;;;;;0.20;0.20;;;;;;;9.89;84.54;99995.78;4957920;28;20451;-87
2023/11/05 03:59:46;;;;;;;0.20;0.20;;;;;;;9.85;83.93;99984.81;4957402;28;20049;-87
2023/11/05 04:02:12;;;;;;;0.20;0.20;;;;;;;9.72;84.45;99983.81;4973307;28;20407;-86
2023/11/05 04:04:37;;;;;;;0.13;0.13;;;;;;;9.72;84.20;100001.91;4957512;28;20077;-87
2023/11/05 04:07:07;;;;;;;0.20;0.20;;;;;;;9.76;84.14;99998.25;4957886;28;20038;-86
2023/11/05 04:09:33;;;;;;;0.10;0.10;;;;;;;9.74;84.15;100002.66;4974119;28;20022;-86
2023/11/05 04:11:59;;;;;;;0.20;0.20;;;;;;;9.64;85.03;99986.84;4973724;28;20038;-86
2023/11/05 04:14:25;;;;;;;0.10;0.10;;;;;;;9.75;85.46;100014.66;4973879;28;20030;-86
2023/11/05 04:16:51;;;;;;;0.20;0.20;;;;;;;9.72;84.51;100007.06;4973712;28;20030;-86
2023/11/05 04:19:16;;;;;;;0.20;0.20;;;;;;;9.83;84.55;100002.13;4961035;28;20026;-86
2023/11/05 04:21:42;;;;;;;0.10;0.10;;;;;;;9.83;83.73;100002.13;4976841;28;20085;-86
2023/11/05 04:24:07;;;;;;;0.17;0.17;;;;;;;9.83;83.79;99985.78;4977063;28;20484;-87
2023/11/05 04:26:33;;;;;;;0.20;0.20;;;;;;;9.85;83.19;99983.97;4960898;28;20181;-88
2023/11/05 04:28:58;;;;;;;0.10;0.10;;;;;;;9.94;82.67;99998.97;4960958;28;20451;-86
2023/11/05 04:31:24;;;;;;;0.10;0.10;;;;;;;9.91;81.47;100015.47;4960616;28;20031;-87
2023/11/05 04:33:51;;;;;;;0.15;0.15;;;;;;;9.80;81.94;100004.88;4976823;28;20034;-86
2023/11/05 04:36:16;;;;;;;0.10;0.10;;;;;;;9.84;81.25;100003.81;4977021;28;20085;-86
2023/11/05 04:38:42;;;;;;;0.10;0.10;;;;;;;9.76;80.86;99993.06;4976674;28;20054;-87
2023/11/05 04:41:08;;;;;;;0.20;0.20;;;;;;;9.77;81.02;100002.50;4976931;28;20076;-87
2023/11/05 04:43:33;;;;;;;0.20;0.20;;;;;;;9.75;80.86;100010.31;4960580;28;20241;-87
2023/11/05 04:46:02;;;;;;;0.20;0.20;;;;;;;9.73;81.19;100024.22;4976789;28;20492;-87
2023/11/05 04:48:27;;;;;;;0.20;0.20;;;;;;;9.57;81.30;99998.41;4961344;28;20030;-87
2023/11/05 04:50:53;;;;;;;0.20;0.20;;;;;;;9.57;80.65;99995.84;5009136;28;20116;-86
2023/11/05 04:53:19;;;;;;;0.20;0.20;;;;;;;9.73;80.50;100022.50;4976664;28;20480;-87
2023/11/05 04:55:44;;;;;;;0.20;0.20;;;;;;;9.71;80.96;100023.47;4960103;28;20530;-86
2023/11/05 04:58:10;;;;;;;0.10;0.10;;;;;;;9.70;81.00;100022.66;4960306;28;20027;-87
2023/11/05 05:00:35;;;;;;;0.20;0.20;;;;;;;9.60;80.54;99992.25;4976045;28;20029;-87
2023/11/05 05:03:02;;;;;;;0.10;0.10;;;;;;;9.70;80.94;99999.41;4976434;28;20526;-87
2023/11/05 05:05:27;;;;;;;0.10;0.10;;;;;;;9.49;80.67;99980.75;4960226;28;20575;-87
2023/11/05 05:07:53;;;;;;;0.10;0.10;;;;;;;9.65;80.75;100018.66;4993989;28;20108;-86
2023/11/05 05:10:18;;;;;;;0.10;0.10;;;;;;;9.65;80.83;100016.09;4976354;28;20078;-86
2023/11/05 05:12:44;;;;;;;0.20;0.20;;;;;;;9.58;80.86;99986.34;4992243;28;20058;-86
2023/11/05 05:15:09;;;;;;;0.20;0.20;;;;;;;9.55;81.17;99982.19;4959858;28;20456;-86
2023/11/05 05:17:35;;;;;;;0.20;0.20;;;;;;;9.55;80.86;99989.94;4992297;28;20062;-87
2023/11/05 05:20:02;;;;;;;0.20;0.20;;;;;;;9.41;81.36;99980.34;4959962;28;20420;-86
2023/11/05 05:22:28;;;;;;;0.20;0.20;;;;;;;9.45;81.62;99979.28;4976415;28;20033;-87
2023/11/05 05:24:53;;;;;;;0.20;0.20;;;;;;;9.44;82.04;99969.84;4959832;28;20038;-87
2023/11/05 05:27:19;;;;;;;0.20;0.20;;;;;;;9.49;81.19;99978.16;4991427;28;20100;-87
2023/11/05 05:29:45;;;;;;;0.20;0.20;;;;;;;9.46;81.06;99968.03;4975164;28;20041;-87
2023/11/05 05:32:10;;;;;;;0.10;0.10;;;;;;;9.44;81.64;99959.53;4975978;28;20022;-87
2023/11/05 05:34:36;;;;;;;0.20;0.20;;;;;;;9.51;81.71;99951.44;5007819;28;20030;-86
2023/11/05 05:37:01;;;;;;;0.20;0.20;;;;;;;9.47;81.37;99937.88;4975806;28;20038;-86
2023/11/05 05:39:27;;;;;;;0.10;0.10;;;;;;;9.46;81.73;99949.94;4975322;28;20054;-86
2023/11/05 05:41:52;;;;;;;0.10;0.10;;;;;;;9.45;81.64;99935.38;4959344;28;20088;-86
2023/11/05 05:44:18;;;;;;;0.10;0.10;;;;;;;9.47;81.65;99943.03;4975721;28;20034;-86
2023/11/05 05:46:45;;;;;;;0.20;0.20;;;;;;;9.55;81.48;99960.69;4991931;28;21201;-86
2023/11/05 05:49:10;;;;;;;0.10;0.10;;;;;;;9.66;80.91;99945.44;4975776;28;20029;-86
2023/11/05 05:51:36;;;;;;;0.20;0.20;;;;;;;9.55;80.96;99930.53;4975267;28;20026;-86
2023/11/05 05:54:01;;;;;;;0.10;0.10;;;;;;;9.54;81.21;99935.75;4975553;28;20412;-87
2023/11/05 05:56:27;;;;;;;0.20;0.20;;;;;;;9.63;81.64;99943.00;4958864;28;20484;-87
2023/11/05 05:58:52;;;;;;;0.10;0.10;;;;;;;9.69;81.24;99947.84;4975349;28;20069;-87
2023/11/05 06:01:18;;;;;;;0.20;0.20;;;;;;;9.77;80.56;99948.25;4959048;28;20038;-87
2023/11/05 06:03:44;;;;;;;0.20;0.20;;;;;;;9.77;80.29;99940.50;4975442;28;20129;-85
2023/11/05 06:06:09;;;;;;;0.10;0.10;;;;;;;9.67;80.40;99944.50;4975151;28;20130;-86
2023/11/05 06:08:35;;;;;;;0.10;0.10;;;;;;;9.59;80.44;99931.19;4975217;28;20488;-87
2023/11/05 06:11:00;;;;;;;0.10;0.10;;;;;;;9.77;80.04;99961.16;4974661;28;20109;-87
2023/11/05 06:13:26;;;;;;;0.20;0.20;;;;;;;9.85;80.12;99963.31;4974943;28;20022;-86
2023/11/05 06:15:52;;;;;;;0.15;0.15;;;;;;;9.87;79.67;99951.97;4975036;28;20034;-87
2023/11/05 06:18:18;;;;;;;0.10;0.10;;;;;;;9.90;79.50;99959.53;5007713;28;20022;-88
2023/11/05 06:20:44;;;;;;;0.13;0.13;;;;;;;9.95;80.01;99949.78;4990811;28;20026;-86
2023/11/05 06:23:09;;;;;;;0.20;0.20;;;;;;;9.85;79.30;99925.41;5007379;28;20030;-87
2023/11/05 06:25:35;;;;;;;0.20;0.20;;;;;;;10.03;79.47;99945.03;4990646;28;20026;-87
2023/11/05 06:28:00;;;;;;;0.10;0.10;;;;;;;9.99;79.32;99946.09;4958747;28;20096;-86
2023/11/05 06:30:26;;;;;;;0.20;0.20;;;;;;;10.13;79.25;99957.38;4974806;28;20054;-86
2023/11/05 06:32:51;;;;;;;0.20;0.20;;;;;;;10.10;79.42;99936.91;4958679;28;20480;-88
2023/11/05 06:35:17;;;;;;;0.20;0.20;;;;;;;10.11;79.57;99954.06;5006942;28;20030;-85
2023/11/05 06:37:42;;;;;;;0.20;0.20;;;;;;;10.10;79.55;99960.16;4958294;28;20061;-87
2023/11/05 06:40:08;;;;;;;0.20;0.20;;;;;;;10.11;79.44;99941.13;4973584;28;20034;-86
2023/11/05 06:42:34;;;;;;;0.20;0.20;;;;;;;10.21;79.29;99944.84;4958215;28;20117;-86
2023/11/05 06:44:59;;;;;;;0.20;0.20;;;;;;;10.25;79.90;99952.38;4974635;28;20109;-86
2023/11/05 06:47:25;;;;;;;0.20;0.20;;;;;;;10.28;79.51;99941.03;4958260;28;20041;-88
2023/11/05 06:49:50;;;;;;;0.13;0.13;;;;;;;10.35;79.38;99952.69;4958189;28;20460;-86
2023/11/05 06:52:16;;;;;;;0.20;0.20;;;;;;;10.37;79.38;99950.84;4958290;28;20026;-87
2023/11/05 06:54:42;;;;;;;0.10;0.10;;;;;;;10.38;79.51;99943.91;4957964;28;20121;-87
2023/11/05 06:57:07;;;;;;;0.10;0.10;;;;;;;10.41;78.76;99951.47;4974424;28;20030;-86
2023/11/05 06:59:33;;;;;;;0.10;0.10;;;;;;;10.57;78.20;99939.31;4974102;28;20041;-87
2023/11/05 07:01:59;;;;;;;0.20;0.20;;;;;;;10.65;77.92;99923.34;4990364;28;20074;-87
2023/11/05 07:04:24;;;;;;;0.20;0.20;;;;;;;10.69;77.62;99914.47;4974328;28;20035;-87
2023/11/05 07:06:50;;;;;;;0.20;0.20;;;;;;;10.75;78.01;99916.69;4974335;28;20026;-87
2023/11/05 07:09:15;;;;;;;0.20;0.20;;;;;;;10.92;78.04;99908.72;5006235;28;20030;-86
2023/11/05 07:11:41;;;;;;;0.20;0.20;;;;;;;10.81;77.20;99899.00;4990378;28;20084;-86
2023/11/05 07:14:07;;;;;;;0.10;0.10;;;;;;;10.86;77.51;99890.97;4958083;28;20038;-85
2023/11/05 07:16:33;;;;;;;0.10;0.10;;;;;;;10.90;77.62;99901.03;4990215;28;20069;-87
2023/11/05 07:18:58;;;;;;;0.10;0.10;;;;;;;11.02;77.11;99890.88;4974138;28;20030;-87
2023/11/05 07:21:25;;;;;;;0.17;0.17;;;;;;;11.02;77.80;99885.69;4973987;28;20133;-87
2023/11/05 07:23:51;;;;;;;0.20;0.20;;;;;;;10.94;78.16;99862.88;4989588;28;20477;-86
2023/11/05 07:26:16;;;;;;;0.20;0.20;;;;;;;11.12;77.76;99879.84;4973740;28;20507;-86
2023/11/05 07:28:42;;;;;;;0.10;0.10;;;;;;;11.30;76.91;99884.75;4973786;28;20389;-86
2023/11/05 07:31:13;;;;;;;0.10;0.10;;;;;;;11.40;76.55;99891.84;4974013;28;20032;-86
2023/11/05 07:33:38;;;;;;;0.20;0.20;;;;;;;11.39;74.80;99879.84;4958138;28;20030;-86
2023/11/05 07:36:04;;;;;;;0.10;0.10;;;;;;;11.35;75.64;99849.91;4973914;28;20030;-87
2023/11/05 07:38:30;;;;;;;0.10;0.10;;;;;;;11.49;75.37;99844.63;4973394;28;20051;-87
2023/11/05 07:40:56;;;;;;;0.20;0.20;;;;;;;11.70;75.00;99873.53;4973977;28;20038;-86
2023/11/05 07:43:21;;;;;;;0.20;0.20;;;;;;;11.63;74.81;99866.25;4989953;28;20031;-86
2023/11/05 07:45:47;;;;;;;0.20;0.20;;;;;;;11.76;74.34;99856.72;4973750;28;20048;-86
2023/11/05 07:48:12;;;;;;;0.20;0.20;;;;;;;11.72;74.79;99840.56;4957681;28;20026;-87
2023/11/05 07:50:38;;;;;;;0.20;0.20;;;;;;;11.81;74.68;99833.16;4957677;28;20034;-87
2023/11/05 07:53:03;;;;;;;0.10;0.10;;;;;;;11.87;74.18;99827.53;4975949;28;20447;-87
2023/11/05 07:55:29;;;;;;;0.20;0.20;;;;;;;12.04;73.70;99824.66;4977986;28;20153;-85
2023/11/05 07:57:54;;;;;;;0.20;0.20;;;;;;;12.07;73.64;99817.47;4977315;28;20026;-87
2023/11/05 08:00:20;;;;;;;0.20;0.20;;;;;;;12.18;73.78;99806.38;4977126;28;20061;-86
2023/11/05 08:02:49;;;;;;;0.10;0.10;;;;;;;12.18;73.20;99811.56;4977347;28;20519;-87
2023/11/05 08:05:14;;;;;;;0.10;0.10;;;;;;;12.23;73.37;99787.94;4977936;28;20030;-87
2023/11/05 08:07:41;;;;;;;0.10;0.10;;;;;;;12.34;73.42;99811.34;4992894;28;20519;-87
2023/11/05 08:10:07;;;;;;;0.10;0.10;;;;;;;12.55;73.38;99804.66;4977169;28;20418;-86
2023/11/05 08:12:33;;;;;;;0.10;0.10;;;;;;;12.71;72.96;99799.25;4961377;28;20455;-86
2023/11/05 08:14:59;;;;;;;0.20;0.20;;;;;;;12.57;73.53;99740.53;4961174;28;20389;-87
2023/11/05 08:17:24;;;;;;;0.20;0.20;;;;;;;12.92;71.77;99761.38;4994531;28;20101;-86
2023/11/05 08:19:50;;;;;;;0.10;0.10;;;;;;;12.96;72.92;99761.13;4977135;28;20069;-87
2023/11/05 08:22:17;;;;;;;0.20;0.20;;;;;;;13.17;72.61;99757.81;4960673;28;20027;-86
2023/11/05 08:24:43;;;;;;;0.10;0.10;;;;;;;13.23;71.80;99753.13;4976973;28;20069;-87
2023/11/05 08:27:10;;;;;;;0.10;0.10;;;;;;;13.36;72.40;99749.50;4977412;28;20036;-87
2023/11/05 08:29:36;;;;;;;0.10;0.10;;;;;;;13.51;70.94;99746.72;4977000;28;20022;-86
2023/11/05 08:32:01;;;;;;;0.20;0.20;;;;;;;13.68;71.21;99765.31;4960520;28;20063;-86
2023/11/05 08:34:27;;;;;;;0.20;0.20;;;;;;;13.75;70.71;99760.47;4993215;28;20041;-87
2023/11/05 08:36:54;;;;;;;0.10;0.10;;;;;;;13.90;70.63;99742.88;4976373;28;20026;-86
2023/11/05 08:39:20;;;;;;;0.20;0.20;;;;;;;13.89;70.75;99742.06;4960875;28;20046;-87
2023/11/05 08:41:46;;;;;;;0.10;0.10;;;;;;;14.07;71.04;99732.84;4976612;28;20038;-86
2023/11/05 08:44:11;;;;;;;0.10;0.10;;;;;;;14.28;70.74;99739.91;4960594;28;20084;-86
2023/11/05 08:46:37;;;;;;;0.20;0.20;;;;;;;14.33;69.71;99735.16;4976527;28;20045;-86
2023/11/05 08:49:02;;;;;;;0.15;0.15;;;;;;;14.34;69.25;99718.59;4976606;28;20034;-85
2023/11/05 08:51:28;;;;;;;0.20;0.20;;;;;;;14.39;69.36;99713.06;4992065;28;20105;-85
2023/11/05 08:53:54;;;;;;;0.10;0.10;;;;;;;14.63;69.42;99739.75;4976455;28;20061;-86
2023/11/05 08:56:23;;;;;;;0.20;0.20;;;;;;;14.80;67.58;99728.81;4976606;28;20034;-86
2023/11/05 08:58:49;;;;;;;0.20;0.20;;;;;;;14.96;69.59;99730.19;4976359;28;20030;-86
2023/11/05 09:01:16;;;;;;;0.20;0.20;;;;;;;15.13;66.22;99721.81;4992526;28;20030;-86
2023/11/05 09:03:45;;;;;;;0.10;0.10;;;;;;;15.38;67.53;99729.28;5007731;28;20040;-87
2023/11/05 09:06:11;;;;;;;0.10;0.10;;;;;;;15.32;65.12;99723.72;4976476;28;20037;-86
2023/11/05 09:08:39;;;;;;;0.10;0.10;;;;;;;15.52;64.75;99735.94;4960137;28;20026;-87
2023/11/05 09:11:07;;;;;;;0.10;0.10;;;;;;;15.52;63.67;99722.91;4976338;28;20041;-86
2023/11/05 09:13:32;;;;;;;0.10;0.10;;;;;;;15.62;64.39;99718.59;4976339;28;20526;-86
2023/11/05 09:15:58;;;;;;;0.20;0.20;;;;;;;15.68;63.30;99704.22;4993556;28;20026;-86
2023/11/05 09:18:24;;;;;;;0.20;0.20;;;;;;;15.67;64.12;99687.75;4959948;28;20042;-86
2023/11/05 09:20:50;;;;;;;0.10;0.10;;;;;;;15.73;62.82;99696.81;4959422;28;20022;-86
2023/11/05 09:23:16;;;;;;;0.20;0.20;;;;;;;15.93;61.92;99718.63;4975914;28;20555;-85
2023/11/05 09:25:41;;;;;;;0.17;0.17;;;;;;;16.06;62.32;99687.91;4975519;28;20030;-87
2023/11/05 09:28:07;;;;;;;0.13;0.13;;;;;;;16.34;62.60;99702.00;4959751;28;20141;-86
2023/11/05 09:30:33;;;;;;;0.10;0.10;;;;;;;16.47;61.83;99699.13;4975869;28;20026;-86
2023/11/05 09:32:58;;;;;;;0.20;0.20;;;;;;;16.59;62.77;99703.25;4975909;28;20084;-87
2023/11/05 09:35:24;;;;;;;0.10;0.10;;;;;;;16.67;62.75;99687.75;4959114;28;20432;-86
2023/11/05 09:37:50;;;;;;;0.20;0.20;;;;;;;16.59;62.47;99690.19;5008026;28;20026;-86
2023/11/05 09:40:15;;;;;;;0.20;0.20;;;;;;;16.83;62.56;99689.84;5008114;28;20034;-85
2023/11/05 09:42:54;;;;;;;0.20;0.20;;;;;;;16.88;63.01;99678.00;4975767;28;20034;-86
2023/11/05 09:45:20;;;;;;;0.10;0.10;;;;;;;17.00;61.01;99670.03;4991618;28;20033;-86
2023/11/05 09:47:45;;;;;;;0.20;0.20;;;;;;;17.14;61.91;99672.22;4975486;28;20034;-87
2023/11/05 09:50:12;;;;;;;0.20;0.20;;;;;;;17.25;61.13;99682.50;4959041;28;20484;-87
2023/11/05 09:52:41;;;;;;;0.20;0.20;;;;;;;17.24;60.30;99670.41;4959767;28;20404;-86
2023/11/05 09:55:10;;;;;;;0.20;0.20;;;;;;;17.27;60.53;99654.44;4995002;28;20061;-86
2023/11/05 09:57:37;;;;;;;0.20;0.20;;;;;;;17.42;60.15;99676.56;4994354;28;20022;-86
2023/11/05 10:00:04;;;;;;;0.20;0.20;;;;;;;17.54;58.82;99656.28;4994917;28;20030;-86
2023/11/05 10:02:52;;;;;;;0.10;0.10;;;;;;;17.65;58.83;99648.25;4994844;28;20034;-86
2023/11/05 10:05:18;;;;;;;0.17;0.17;;;;;;;17.41;57.77;99640.94;4994820;28;20026;-85
2023/11/05 10:07:43;;;;;;;0.10;0.10;;;;;;;17.45;57.88;99673.66;4978617;28;20026;-86
2023/11/05 10:10:09;;;;;;;0.20;0.20;;;;;;;17.49;58.60;99669.78;4978337;28;20034;-86
2023/11/05 10:12:34;;;;;;;0.20;0.20;;;;;;;17.56;58.84;99664.81;4994583;28;20022;-86
2023/11/05 10:15:00;;;;;;;0.10;0.10;;;;;;;17.56;59.32;99643.06;4978177;28;20041;-87
2023/11/05 10:17:26;;;;;;;0.20;0.20;;;;;;;17.65;58.71;99655.28;4977791;28;20026;-87
2023/11/05 10:19:51;;;;;;;0.20;0.20;;;;;;;17.72;59.46;99659.03;4994254;28;20084;-86
2023/11/05 10:22:17;;;;;;;0.20;0.20;;;;;;;17.82;58.13;99658.97;4994344;28;20060;-86
2023/11/05 10:24:45;;;;;;;0.20;0.20;;;;;;;17.78;58.75;99648.78;4977840;28;20065;-86
2023/11/05 10:27:11;;;;;;;0.10;0.10;;;;;;;17.87;57.04;99627.97;4994380;28;20026;-86
2023/11/05 10:29:37;;;;;;;0.20;0.20;;;;;;;17.99;56.70;99618.94;4978046;28;20080;-87
2023/11/05 10:32:03;;;;;;;0.20;0.20;;;;;;;18.01;56.90;99620.44;4993842;28;20038;-86
2023/11/05 10:34:29;;;;;;;0.10;0.10;;;;;;;18.17;57.00;99629.44;4977630;28;20069;-86
2023/11/05 10:36:55;;;;;;;0.10;0.10;;;;;;;18.17;56.10;99653.00;4977730;28;20438;-87
2023/11/05 10:39:21;;;;;;;0.10;0.10;;;;;;;18.24;55.41;99639.16;4990609;28;20523;-87
2023/11/05 10:41:47;;;;;;;0.20;0.20;;;;;;;18.45;56.31;99641.50;5006845;28;20180;-86
2023/11/05 10:44:12;;;;;;;0.20;0.20;;;;;;;18.56;55.50;99636.03;4974483;28;20038;-88
2023/11/05 10:46:38;;;;;;;0.10;0.10;;;;;;;18.69;54.90;99637.50;4974167;28;20030;-88
2023/11/05 10:49:03;;;;;;;0.10;0.10;;;;;;;18.75;55.39;99618.53;4974371;28;20026;-86
2023/11/05 10:51:29;;;;;;;0.10;0.10;;;;;;;18.86;55.93;99615.69;4974625;28;20528;-87
2023/11/05 10:53:54;;;;;;;0.10;0.10;;;;;;;18.76;54.39;99613.16;4974287;28;20026;-86
2023/11/05 10:56:41;;;;;;;0.10;0.10;;;;;;;19.06;54.68;99648.59;4974287;28;20031;-87
2023/11/05 10:59:07;;;;;;;0.10;0.10;;;;;;;19.01;56.27;99622.03;4990641;28;20044;-85
2023/11/05 11:01:35;;;;;;;0.10;0.10;;;;;;;19.02;54.91;99617.59;4989644;28;20492;-87
2023/11/05 11:04:16;;;;;;;0.10;0.10;;;;;;;19.09;54.72;99624.72;4990242;28;20030;-87
2023/11/05 11:06:44;;;;;;;0.10;0.10;;;;;;;19.10;55.45;99615.88;4975505;28;20030;-87
2023/11/05 11:09:19;;;;;;;0.10;0.10;;;;;;;19.12;54.98;99608.66;4974187;28;20464;-87
2023/11/05 11:11:45;;;;;;;0.10;0.10;;;;;;;19.16;53.68;99623.09;4990111;28;20026;-87
2023/11/05 11:14:10;;;;;;;0.10;0.10;;;;;;;19.16;54.39;99603.91;4990165;28;20088;-86
2023/11/05 11:16:37;;;;;;;0.10;0.10;;;;;;;19.13;53.95;99594.56;4989831;28;20064;-86
2023/11/05 11:19:13;;;;;;;0.10;0.10;;;;;;;19.10;54.25;99579.16;4973946;28;20100;-86
2023/11/05 11:21:58;;;;;;;0.20;0.20;;;;;;;19.12;54.57;99576.38;4973703;28;20027;-86
2023/11/05 11:24:31;;;;;;;0.13;0.13;;;;;;;19.07;54.79;99581.25;4990676;28;20045;-87
2023/11/05 11:27:00;;;;;;;0.20;0.20;;;;;;;19.07;54.97;99568.97;4989838;28;20019;-87